Ellington Field
KEFD : rendu visible

Aérodrome :











RETROUVEZ-NOUS SUR...

 
LOGIN :

S'inscrire | Disclaimer

   EN    FR    IT 

 









Légende :    VFR   VFR Marginal   IFR   IFR Intensif   IFR Très Intensif
Visi : 
Plafond : 
>= 8 km
>= 3000ft
5 à 8 km
1000 à 3000 ft
1500m à 5 km
500 à 1000 ft
800 à 1500m
200 à 500 ft
< 800m
< 200 ft
Symboles :   Orages  Brouillard  Fortes neiges  Fortes précipitations  Vent > 20 kt






- Altitude de l'aérodrome : 32 ft


KEFD - Ellington Field

DERNIER METAR :
  • 210050Z 00000KT 10SM FEW250 13/M03 A3046

METARs EXPIRÉS :
  • 202350Z 02005KT 10SM FEW250 13/M03 A3046
  • 202250Z 04010KT 10SM FEW250 14/M03 A3046

TAF TAF KEFD
Valide du 20 à 20h jusqu'au 22 à 02h UTC


202000Z 2020/2202 01009KT 9999 SKC QNH3045INS
BECMG 2022/2023 06006KT 9999 SKC QNH3045INS
BECMG 2117/2118 09009KT 9999 FEW200 QNH3048INS
BECMG 2121/2122 14009KT 9999 BKN090 QNH3030INS TX13/2020Z TN03/2112Z



MET'MAP, la Météo Aéronautique d'un coup d'oeil ! - Copyright ORBIFLY Décembre 2007 - Disclaimer

ORBIFLY MET'MAP TEAM :

Programmation & Développement : Alexandra Zaïnal
Sur une idée originale de : Baudouin d'Aumeries
Assistance à la programmation : Marc-Olivier Méhu
Soutien technique & logistique : Manuel Goepfert

Contact : metmap@orbifly.com




SOURCES & CREDITS :

   NOAA       Earth
Advisory